createdAt,value
2023-05-17T00:00:19.455Z,692.00
2023-05-17T00:01:19.500Z,684.00
2023-05-17T00:02:19.555Z,687.00
2023-05-17T00:03:19.576Z,683.00
2023-05-17T00:04:19.651Z,680.00
2023-05-17T00:05:19.641Z,687.00
2023-05-17T00:06:19.726Z,697.00
2023-05-17T00:07:19.749Z,686.00
2023-05-17T00:08:19.765Z,694.00
2023-05-17T00:09:19.809Z,696.00
2023-05-17T00:10:19.887Z,697.00
2023-05-17T00:11:19.995Z,702.00
2023-05-17T00:12:19.962Z,699.00
2023-05-17T00:13:20.015Z,699.00
2023-05-17T00:14:20.049Z,694.00
2023-05-17T00:15:20.116Z,695.00
2023-05-17T00:16:20.161Z,692.00
2023-05-17T00:17:20.214Z,696.00
2023-05-17T00:18:20.328Z,693.00
2023-05-17T00:19:20.336Z,697.00
2023-05-17T00:20:20.299Z,713.00
2023-05-17T00:21:20.345Z,696.00
2023-05-17T00:22:20.420Z,692.00
2023-05-17T00:23:20.462Z,685.00
2023-05-17T00:24:20.480Z,694.00
2023-05-17T00:25:20.542Z,690.00
2023-05-17T00:26:20.567Z,688.00
2023-05-17T00:27:20.689Z,690.00
2023-05-17T00:28:20.663Z,690.00
2023-05-17T00:29:20.705Z,687.00
2023-05-17T00:30:20.749Z,707.00
2023-05-17T00:31:20.826Z,710.00
2023-05-17T00:32:20.886Z,703.00
2023-05-17T00:33:20.920Z,691.00
2023-05-17T00:34:20.941Z,686.00
2023-05-17T00:35:21.100Z,693.00
2023-05-17T00:36:21.009Z,682.00
2023-05-17T00:37:21.074Z,679.00
2023-05-17T00:38:21.110Z,679.00
2023-05-17T00:39:21.149Z,682.00
2023-05-17T00:40:21.224Z,677.00
2023-05-17T00:41:21.244Z,676.00
2023-05-17T00:42:21.270Z,680.00
2023-05-17T00:43:21.404Z,670.00
2023-05-17T00:44:21.382Z,666.00
2023-05-17T00:45:21.418Z,662.00
2023-05-17T00:46:21.470Z,662.00
2023-05-17T00:47:21.548Z,652.00
2023-05-17T00:48:21.813Z,659.00
2023-05-17T00:49:21.616Z,654.00
2023-05-17T00:50:21.677Z,651.00
2023-05-17T00:51:21.708Z,651.00
2023-05-17T00:52:21.788Z,650.00
2023-05-17T00:53:21.810Z,642.00
2023-05-17T00:54:21.867Z,634.00
2023-05-17T00:55:21.903Z,629.00
2023-05-17T00:56:21.935Z,635.00
2023-05-17T00:57:21.999Z,637.00
2023-05-17T00:58:22.030Z,632.00
2023-05-17T00:59:22.128Z,624.00
2023-05-17T01:00:22.143Z,627.00
2023-05-17T01:01:22.160Z,622.00
2023-05-17T01:02:22.237Z,621.00
2023-05-17T01:03:22.349Z,617.00
2023-05-17T01:04:22.356Z,617.00
2023-05-17T01:05:22.378Z,611.00
2023-05-17T01:06:22.412Z,608.00
2023-05-17T01:07:22.494Z,608.00
2023-05-17T01:08:22.543Z,612.00
2023-05-17T01:09:22.591Z,609.00
2023-05-17T01:10:22.650Z,608.00
2023-05-17T01:11:22.678Z,609.00
2023-05-17T01:12:22.746Z,607.00
2023-05-17T01:13:22.832Z,600.00
2023-05-17T01:14:22.882Z,603.00
2023-05-17T01:15:22.981Z,611.00
2023-05-17T01:16:23.003Z,619.00
2023-05-17T01:17:23.150Z,619.00
2023-05-17T01:18:23.236Z,609.00
2023-05-17T01:19:23.241Z,600.00
2023-05-17T01:20:23.290Z,602.00
2023-05-17T01:21:23.312Z,602.00
2023-05-17T01:22:23.347Z,600.00
2023-05-17T01:23:23.400Z,601.00
2023-05-17T01:24:23.464Z,603.00
2023-05-17T01:25:23.527Z,606.00
2023-05-17T01:26:23.608Z,608.00
2023-05-17T01:27:23.616Z,611.00
2023-05-17T01:28:23.703Z,611.00
2023-05-17T01:29:23.813Z,613.00
2023-05-17T01:30:23.829Z,614.00
2023-05-17T01:31:23.955Z,616.00
2023-05-17T01:32:24.032Z,617.00
2023-05-17T01:33:24.096Z,616.00
2023-05-17T01:34:24.081Z,620.00
2023-05-17T01:35:24.143Z,618.00
2023-05-17T01:36:25.152Z,620.00
2023-05-17T01:37:24.270Z,618.00
2023-05-17T01:38:24.347Z,611.00
2023-05-17T01:39:24.420Z,612.00
2023-05-17T01:40:24.463Z,610.00
2023-05-17T01:41:24.538Z,608.00
2023-05-17T01:42:24.582Z,608.00
2023-05-17T01:43:24.675Z,607.00
2023-05-17T01:44:24.720Z,600.00
2023-05-17T01:45:24.829Z,600.00
2023-05-17T01:46:24.844Z,600.00
2023-05-17T01:47:24.996Z,600.00
2023-05-17T01:48:24.997Z,601.00
2023-05-17T01:49:24.957Z,602.00
2023-05-17T01:50:25.013Z,605.00
2023-05-17T01:51:25.134Z,609.00
2023-05-17T01:52:25.039Z,610.00
2023-05-17T01:53:25.087Z,616.00
2023-05-17T01:54:25.176Z,616.00
2023-05-17T01:55:25.259Z,615.00
2023-05-17T01:56:25.283Z,615.00
2023-05-17T01:57:25.362Z,612.00
2023-05-17T01:58:25.413Z,623.00
2023-05-17T01:59:25.451Z,613.00
2023-05-17T02:00:25.445Z,604.00
2023-05-17T02:01:25.534Z,598.00
2023-05-17T02:02:25.581Z,603.00
2023-05-17T02:03:25.732Z,600.00
2023-05-17T02:04:25.736Z,603.00
2023-05-17T02:05:25.784Z,602.00
2023-05-17T02:06:25.776Z,603.00
2023-05-17T02:07:25.795Z,602.00
2023-05-17T02:08:25.805Z,600.00
2023-05-17T02:09:25.890Z,604.00
2023-05-17T02:10:26.018Z,607.00
2023-05-17T02:11:25.941Z,609.00
2023-05-17T02:12:26.018Z,617.00
2023-05-17T02:13:26.019Z,621.00
2023-05-17T02:14:26.071Z,624.00
2023-05-17T02:15:26.263Z,627.00
2023-05-17T02:16:26.135Z,624.00
2023-05-17T02:17:26.304Z,628.00
2023-05-17T02:18:26.338Z,629.00
2023-05-17T02:19:26.462Z,633.00
2023-05-17T02:20:26.376Z,636.00
2023-05-17T02:21:26.416Z,640.00
2023-05-17T02:22:26.463Z,651.00
2023-05-17T02:23:26.580Z,651.00
2023-05-17T02:24:26.633Z,653.00
2023-05-17T02:25:26.928Z,649.00
2023-05-17T02:26:26.739Z,652.00
2023-05-17T02:27:26.766Z,654.00
2023-05-17T02:28:26.829Z,656.00
2023-05-17T02:29:26.951Z,662.00
2023-05-17T02:30:27.658Z,659.00
2023-05-17T02:31:27.013Z,660.00
2023-05-17T02:32:27.046Z,661.00
2023-05-17T02:33:27.192Z,658.00
2023-05-17T02:34:27.121Z,666.00
2023-05-17T02:35:27.387Z,663.00
2023-05-17T02:36:27.233Z,662.00
2023-05-17T02:37:27.291Z,663.00
2023-05-17T02:38:27.316Z,680.00
2023-05-17T02:39:27.396Z,677.00
2023-05-17T02:40:27.395Z,676.00
2023-05-17T02:41:27.476Z,669.00
2023-05-17T02:42:27.480Z,664.00
2023-05-17T02:43:27.546Z,661.00
2023-05-17T02:44:27.679Z,665.00
2023-05-17T02:45:27.863Z,670.00
2023-05-17T02:46:28.135Z,682.00
2023-05-17T02:47:27.679Z,697.00
2023-05-17T02:48:27.738Z,683.00
2023-05-17T02:49:27.721Z,675.00
2023-05-17T02:50:27.702Z,681.00
2023-05-17T02:51:27.882Z,681.00
2023-05-17T02:52:27.801Z,673.00
2023-05-17T02:53:27.843Z,665.00
2023-05-17T02:54:27.891Z,673.00
2023-05-17T02:55:28.160Z,681.00
2023-05-17T02:56:27.949Z,679.00
2023-05-17T02:57:27.986Z,682.00
2023-05-17T02:58:28.018Z,685.00
2023-05-17T02:59:28.140Z,683.00
2023-05-17T03:00:28.103Z,682.00
2023-05-17T03:01:28.133Z,688.00
2023-05-17T03:02:28.341Z,678.00
2023-05-17T03:03:28.393Z,675.00
2023-05-17T03:04:28.270Z,674.00
2023-05-17T03:05:28.508Z,676.00
2023-05-17T03:06:28.328Z,682.00
2023-05-17T03:07:28.399Z,677.00
2023-05-17T03:08:28.381Z,680.00
2023-05-17T03:09:28.390Z,672.00
2023-05-17T03:10:28.409Z,673.00
2023-05-17T03:11:28.498Z,675.00
2023-05-17T03:12:29.628Z,673.00
2023-05-17T03:13:28.594Z,673.00
2023-05-17T03:14:29.200Z,672.00
2023-05-17T03:15:28.880Z,666.00
2023-05-17T03:16:28.744Z,664.00
2023-05-17T03:17:28.907Z,669.00
2023-05-17T03:18:28.899Z,665.00
2023-05-17T03:19:28.955Z,665.00
2023-05-17T03:20:28.950Z,673.00
2023-05-17T03:21:28.966Z,676.00
2023-05-17T03:22:29.025Z,673.00
2023-05-17T03:23:29.115Z,663.00
2023-05-17T03:24:29.079Z,665.00
2023-05-17T03:25:29.310Z,664.00
2023-05-17T03:26:29.161Z,678.00
2023-05-17T03:27:29.236Z,683.00
2023-05-17T03:28:29.245Z,676.00
2023-05-17T03:29:29.264Z,685.00
2023-05-17T03:30:29.334Z,691.00
2023-05-17T03:31:29.271Z,689.00
2023-05-17T03:32:29.344Z,684.00
2023-05-17T03:33:29.472Z,679.00
2023-05-17T03:34:29.367Z,677.00
2023-05-17T03:35:29.524Z,679.00
2023-05-17T03:36:29.438Z,685.00
2023-05-17T03:37:29.533Z,680.00
2023-05-17T03:38:29.530Z,676.00
2023-05-17T03:39:29.621Z,688.00
2023-05-17T03:40:29.552Z,698.00
2023-05-17T03:41:29.562Z,685.00
2023-05-17T03:42:29.558Z,675.00
2023-05-17T03:43:29.616Z,679.00
2023-05-17T03:44:29.652Z,676.00
2023-05-17T03:45:29.805Z,673.00
2023-05-17T03:46:29.624Z,680.00
2023-05-17T03:47:29.671Z,678.00
2023-05-17T03:48:29.688Z,671.00
2023-05-17T03:49:29.647Z,674.00
2023-05-17T03:50:29.686Z,667.00
2023-05-17T03:51:29.742Z,670.00
2023-05-17T03:52:29.754Z,673.00
2023-05-17T03:53:29.767Z,678.00
2023-05-17T03:54:29.830Z,693.00
2023-05-17T03:55:30.118Z,694.00
2023-05-17T03:56:29.901Z,690.00
2023-05-17T03:57:29.964Z,700.00
2023-05-17T03:58:29.964Z,692.00
2023-05-17T03:59:29.942Z,680.00
2023-05-17T04:00:29.970Z,682.00
2023-05-17T04:01:29.986Z,692.00
2023-05-17T04:02:29.956Z,694.00
2023-05-17T04:03:29.931Z,695.00
2023-05-17T04:04:29.984Z,692.00
2023-05-17T04:05:30.192Z,694.00
2023-05-17T04:06:29.987Z,700.00
2023-05-17T04:07:30.009Z,703.00
2023-05-17T04:08:30.005Z,701.00
2023-05-17T04:09:30.046Z,690.00
2023-05-17T04:10:30.067Z,691.00
2023-05-17T04:11:30.111Z,693.00
2023-05-17T04:12:30.086Z,708.00
2023-05-17T04:13:30.077Z,712.00
2023-05-17T04:14:30.050Z,703.00
2023-05-17T04:15:30.309Z,710.00
2023-05-17T04:16:30.080Z,709.00
2023-05-17T04:17:30.090Z,712.00
2023-05-17T04:18:30.161Z,718.00
2023-05-17T04:19:30.135Z,728.00
2023-05-17T04:20:30.094Z,722.00
2023-05-17T04:21:30.061Z,722.00
2023-05-17T04:22:30.091Z,721.00
2023-05-17T04:23:30.069Z,722.00
2023-05-17T04:24:30.090Z,719.00
2023-05-17T04:25:30.139Z,706.00
2023-05-17T04:26:30.100Z,716.00
2023-05-17T04:27:30.255Z,713.00
2023-05-17T04:28:30.122Z,700.00
2023-05-17T04:29:30.114Z,696.00
2023-05-17T04:30:30.141Z,696.00
2023-05-17T04:31:30.103Z,700.00
2023-05-17T04:32:30.153Z,699.00
2023-05-17T04:33:30.247Z,702.00
2023-05-17T04:34:30.154Z,696.00
2023-05-17T04:35:30.231Z,697.00
2023-05-17T04:36:30.178Z,708.00
2023-05-17T04:37:30.217Z,727.00
2023-05-17T04:38:30.205Z,724.00
2023-05-17T04:39:30.954Z,711.00
2023-05-17T04:40:30.186Z,715.00
2023-05-17T04:41:30.229Z,722.00
2023-05-17T04:42:30.186Z,716.00
2023-05-17T04:43:30.254Z,705.00
2023-05-17T04:44:30.186Z,712.00
2023-05-17T04:45:30.335Z,707.00
2023-05-17T04:46:30.226Z,712.00
2023-05-17T04:47:30.476Z,718.00
2023-05-17T04:48:30.411Z,721.00
2023-05-17T04:49:30.352Z,723.00
2023-05-17T04:50:30.326Z,731.00
2023-05-17T04:51:30.321Z,731.00
2023-05-17T04:52:30.362Z,740.00
2023-05-17T04:53:30.370Z,738.00
2023-05-17T04:54:30.362Z,727.00
2023-05-17T04:55:30.580Z,736.00
2023-05-17T04:56:30.330Z,743.00
2023-05-17T04:57:30.331Z,758.00
2023-05-17T04:58:30.326Z,757.00
2023-05-17T04:59:30.555Z,746.00
2023-05-17T05:00:30.312Z,747.00
2023-05-17T05:01:30.307Z,745.00
2023-05-17T05:02:30.360Z,746.00
2023-05-17T05:03:30.410Z,758.00
2023-05-17T05:04:30.363Z,771.00
2023-05-17T05:05:30.518Z,770.00
2023-05-17T05:06:30.322Z,766.00
2023-05-17T05:07:30.331Z,765.00
2023-05-17T05:08:30.313Z,768.00
2023-05-17T05:09:30.349Z,780.00
2023-05-17T05:10:31.217Z,792.00
2023-05-17T05:11:30.355Z,793.00
2023-05-17T05:12:30.365Z,803.00
2023-05-17T05:13:30.386Z,811.00
2023-05-17T05:14:30.418Z,812.00
2023-05-17T05:15:30.637Z,814.00
2023-05-17T05:16:31.198Z,825.00
2023-05-17T05:17:30.508Z,821.00
2023-05-17T05:18:30.527Z,821.00
2023-05-17T05:19:31.305Z,821.00
2023-05-17T05:20:30.451Z,816.00
2023-05-17T05:21:30.472Z,816.00
2023-05-17T05:22:30.477Z,807.00
2023-05-17T05:23:30.484Z,813.00
2023-05-17T05:24:31.203Z,811.00
2023-05-17T05:25:30.748Z,821.00
2023-05-17T05:26:30.490Z,825.00
2023-05-17T05:27:30.520Z,826.00
2023-05-17T05:28:30.492Z,820.00
2023-05-17T05:29:30.503Z,827.00
2023-05-17T05:30:30.525Z,827.00
2023-05-17T05:31:30.706Z,828.00
2023-05-17T05:32:30.684Z,828.00
2023-05-17T05:33:30.659Z,831.00
2023-05-17T05:34:30.651Z,829.00
2023-05-17T05:35:30.999Z,830.00
2023-05-17T05:36:30.720Z,832.00
2023-05-17T05:37:30.758Z,838.00
2023-05-17T05:38:30.797Z,845.00
2023-05-17T05:39:30.866Z,849.00
2023-05-17T05:40:31.090Z,859.00
2023-05-17T05:41:30.978Z,872.00
2023-05-17T05:42:31.055Z,907.00
2023-05-17T05:43:31.088Z,910.00
2023-05-17T05:44:31.178Z,932.00
2023-05-17T05:45:31.258Z,947.00
2023-05-17T05:46:31.284Z,958.00
2023-05-17T05:47:31.440Z,975.00
2023-05-17T05:48:31.457Z,1001.00
2023-05-17T05:49:32.142Z,1021.00
2023-05-17T05:50:31.659Z,1046.00
2023-05-17T05:51:31.528Z,1062.00
2023-05-17T05:52:31.614Z,1074.00
2023-05-17T05:53:31.615Z,1090.00
2023-05-17T05:54:31.649Z,1102.00
2023-05-17T05:55:31.709Z,1116.00
2023-05-17T05:56:31.734Z,1142.00
2023-05-17T05:57:31.761Z,1141.00
2023-05-17T05:58:31.863Z,1203.00
2023-05-17T05:59:31.884Z,1198.00
2023-05-17T06:00:32.029Z,1213.00
2023-05-17T06:01:31.956Z,1218.00
2023-05-17T06:02:32.008Z,1255.00
2023-05-17T06:03:32.079Z,1262.00
2023-05-17T06:04:41.279Z,1278.00
2023-05-17T06:05:33.249Z,1280.00
2023-05-17T06:06:32.094Z,1287.00
2023-05-17T06:07:32.001Z,1298.00
2023-05-17T06:08:32.018Z,1323.00
2023-05-17T06:09:32.017Z,1356.00
2023-05-17T06:10:32.124Z,1380.00
2023-05-17T06:11:31.996Z,1388.00
2023-05-17T06:12:31.970Z,1395.00
2023-05-17T06:13:31.987Z,1419.00
2023-05-17T06:14:31.953Z,1442.00
2023-05-17T06:15:31.954Z,1453.00
2023-05-17T06:16:31.945Z,1472.00
2023-05-17T06:17:31.962Z,1458.00
2023-05-17T06:18:32.011Z,1480.00
2023-05-17T06:19:32.321Z,1485.00
2023-05-17T06:20:32.046Z,1506.00
2023-05-17T06:21:31.944Z,1518.00
2023-05-17T06:22:31.922Z,1515.00
2023-05-17T06:23:31.928Z,1518.00
2023-05-17T06:24:33.190Z,1545.00
2023-05-17T06:25:31.890Z,1557.00
2023-05-17T06:26:31.892Z,1552.00
2023-05-17T06:27:31.956Z,1551.00
2023-05-17T06:28:32.017Z,1570.00
2023-05-17T06:29:32.070Z,1581.00
2023-05-17T06:30:32.220Z,1584.00
2023-05-17T06:31:32.184Z,1593.00
2023-05-17T06:32:32.251Z,1606.00
2023-05-17T06:33:32.302Z,1619.00
2023-05-17T06:34:32.305Z,1639.00
2023-05-17T06:35:40.802Z,1636.00
2023-05-17T06:36:33.883Z,1637.00
2023-05-17T06:37:32.402Z,1641.00
2023-05-17T06:38:32.334Z,1646.00
2023-05-17T06:39:32.385Z,1665.00
2023-05-17T06:40:32.525Z,1685.00
2023-05-17T06:41:32.454Z,1698.00
2023-05-17T06:42:32.506Z,1713.00
2023-05-17T06:43:32.536Z,1708.00
2023-05-17T06:44:33.243Z,1723.00
2023-05-17T06:45:32.620Z,1728.00
2023-05-17T06:46:32.646Z,1726.00
2023-05-17T06:47:32.816Z,1719.00
2023-05-17T06:48:32.880Z,1734.00
2023-05-17T06:49:32.762Z,1733.00
2023-05-17T06:50:32.921Z,1754.00
2023-05-17T06:51:32.869Z,1770.00
2023-05-17T06:52:32.872Z,1797.00
2023-05-17T06:53:32.837Z,1808.00
2023-05-17T06:54:33.729Z,1836.00
2023-05-17T06:55:32.851Z,1852.00
2023-05-17T06:56:32.905Z,1865.00
2023-05-17T06:57:32.884Z,1898.00
2023-05-17T06:58:32.889Z,1932.00
2023-05-17T06:59:32.907Z,1929.00
2023-05-17T07:00:33.264Z,1826.00
2023-05-17T07:01:32.915Z,1777.00
2023-05-17T07:02:34.596Z,1848.00
2023-05-17T07:03:33.027Z,1812.00
2023-05-17T07:04:32.991Z,1827.00
2023-05-17T07:05:33.372Z,1854.00
2023-05-17T07:06:32.961Z,1851.00
2023-05-17T07:07:33.112Z,1808.00
2023-05-17T07:08:32.981Z,1766.00
2023-05-17T07:09:33.001Z,1779.00
2023-05-17T07:10:33.009Z,1762.00
2023-05-17T07:11:33.064Z,1777.00
2023-05-17T07:12:33.019Z,1773.00
2023-05-17T07:13:33.016Z,1770.00
2023-05-17T07:14:33.069Z,1745.00
2023-05-17T07:15:33.018Z,1724.00
2023-05-17T07:16:33.006Z,1719.00
2023-05-17T07:17:33.034Z,1709.00
2023-05-17T07:18:33.229Z,1710.00
2023-05-17T07:19:33.147Z,1691.00
2023-05-17T07:20:33.044Z,1686.00
2023-05-17T07:21:32.995Z,1687.00
2023-05-17T07:22:32.998Z,1682.00
2023-05-17T07:23:33.452Z,1653.00
2023-05-17T07:24:33.007Z,1630.00
2023-05-17T07:25:33.005Z,1643.00
2023-05-17T07:26:33.031Z,1651.00
2023-05-17T07:27:33.743Z,1644.00
2023-05-17T07:28:33.085Z,1640.00
2023-05-17T07:30:09.713Z,600.00
2023-05-17T07:31:09.686Z,600.00
2023-05-17T07:32:09.659Z,600.00
2023-05-17T07:33:09.721Z,600.00
2023-05-17T07:34:09.703Z,600.00
2023-05-17T07:35:09.637Z,613.00
2023-05-17T07:36:09.678Z,617.00
2023-05-17T07:37:09.649Z,621.00
2023-05-17T07:38:09.628Z,643.00
2023-05-17T07:39:09.752Z,640.00
2023-05-17T07:40:09.644Z,631.00
2023-05-17T07:41:09.729Z,611.00
2023-05-17T07:42:09.590Z,613.00
2023-05-17T07:43:09.657Z,614.00
2023-05-17T07:44:09.599Z,616.00
2023-05-17T07:45:09.593Z,622.00
2023-05-17T07:46:09.597Z,634.00
2023-05-17T07:47:09.625Z,638.00
2023-05-17T07:48:09.636Z,642.00
2023-05-17T07:49:09.727Z,649.00
2023-05-17T07:50:09.581Z,666.00
2023-05-17T07:51:09.539Z,687.00
2023-05-17T07:52:09.582Z,694.00
2023-05-17T07:53:09.546Z,714.00
2023-05-17T07:54:09.562Z,721.00
2023-05-17T07:55:09.765Z,748.00
2023-05-17T07:56:09.526Z,765.00
2023-05-17T07:57:09.545Z,788.00
2023-05-17T07:58:09.524Z,785.00
2023-05-17T07:59:10.399Z,803.00
2023-05-17T08:00:09.540Z,809.00
2023-05-17T08:01:09.578Z,825.00
2023-05-17T08:02:09.615Z,837.00
2023-05-17T08:03:09.738Z,820.00
2023-05-17T08:04:09.805Z,835.00
2023-05-17T08:05:09.783Z,822.00
2023-05-17T08:06:09.881Z,832.00
2023-05-17T08:07:09.850Z,839.00
2023-05-17T08:08:09.908Z,841.00
2023-05-17T08:09:09.914Z,849.00
2023-05-17T08:10:09.928Z,860.00
2023-05-17T08:11:09.952Z,875.00
2023-05-17T08:12:10.002Z,886.00
2023-05-17T08:13:10.044Z,903.00
2023-05-17T08:14:10.094Z,921.00
2023-05-17T08:15:10.115Z,923.00
2023-05-17T08:16:14.039Z,945.00
2023-05-17T08:17:10.139Z,946.00
2023-05-17T08:18:10.250Z,948.00
2023-05-17T08:19:10.271Z,953.00
2023-05-17T08:20:10.142Z,963.00
2023-05-17T08:21:10.145Z,983.00
2023-05-17T08:22:10.115Z,987.00
2023-05-17T08:23:10.122Z,1003.00
2023-05-17T08:24:10.090Z,1000.00
2023-05-17T08:25:10.109Z,1014.00
2023-05-17T08:26:10.094Z,1019.00
2023-05-17T08:27:10.087Z,1027.00
2023-05-17T08:28:10.072Z,1038.00
2023-05-17T08:29:10.046Z,1058.00
2023-05-17T08:30:14.719Z,1048.00
2023-05-17T08:31:11.041Z,1049.00
2023-05-17T08:32:10.095Z,1055.00
2023-05-17T08:33:10.071Z,1068.00
2023-05-17T08:34:10.101Z,1064.00
2023-05-17T08:35:10.030Z,1061.00
2023-05-17T08:36:10.014Z,1035.00
2023-05-17T08:37:10.070Z,1033.00
2023-05-17T08:38:10.009Z,1013.00
2023-05-17T08:39:10.135Z,1021.00
2023-05-17T08:40:10.084Z,1022.00
2023-05-17T08:41:09.978Z,937.00
2023-05-17T08:42:09.994Z,869.00
2023-05-17T08:43:10.169Z,897.00
2023-05-17T08:44:09.994Z,894.00
2023-05-17T08:45:09.969Z,904.00
2023-05-17T08:46:09.949Z,907.00
2023-05-17T08:47:09.975Z,907.00
2023-05-17T08:48:10.054Z,894.00
2023-05-17T08:49:10.029Z,909.00
2023-05-17T08:50:10.010Z,929.00
2023-05-17T08:51:10.055Z,939.00
2023-05-17T08:52:10.112Z,942.00
2023-05-17T08:53:10.206Z,925.00
2023-05-17T08:54:10.142Z,915.00
2023-05-17T08:55:10.152Z,841.00
2023-05-17T08:56:10.210Z,840.00
2023-05-17T08:57:10.239Z,767.00
2023-05-17T08:58:10.280Z,681.00
2023-05-17T08:59:10.341Z,731.00
2023-05-17T09:00:10.340Z,714.00
2023-05-17T09:01:10.372Z,672.00
2023-05-17T09:02:10.411Z,664.00
2023-05-17T09:03:10.469Z,664.00
2023-05-17T09:04:10.485Z,725.00
2023-05-17T09:05:10.754Z,755.00
2023-05-17T09:06:10.529Z,778.00
2023-05-17T09:07:10.556Z,805.00
2023-05-17T09:08:10.555Z,835.00
2023-05-17T09:09:10.582Z,875.00
2023-05-17T09:10:10.604Z,892.00
2023-05-17T09:11:10.605Z,886.00
2023-05-17T09:12:10.624Z,886.00
2023-05-17T09:13:10.634Z,895.00
2023-05-17T09:14:10.622Z,904.00
2023-05-17T09:15:10.758Z,868.00
2023-05-17T09:16:10.634Z,773.00
2023-05-17T09:17:10.628Z,764.00
2023-05-17T09:18:10.751Z,763.00
2023-05-17T09:19:10.679Z,740.00
2023-05-17T09:20:10.690Z,708.00
2023-05-17T09:21:10.705Z,760.00
2023-05-17T09:22:10.698Z,736.00
2023-05-17T09:23:10.708Z,729.00
2023-05-17T09:24:10.714Z,724.00
2023-05-17T09:25:10.762Z,772.00
2023-05-17T09:26:10.722Z,835.00
2023-05-17T09:27:10.728Z,824.00
2023-05-17T09:28:10.712Z,845.00
2023-05-17T09:29:10.772Z,854.00
2023-05-17T09:30:10.771Z,879.00
2023-05-17T09:31:10.824Z,895.00
2023-05-17T09:32:10.829Z,924.00
2023-05-17T09:33:11.139Z,937.00
2023-05-17T09:34:11.015Z,946.00
2023-05-17T09:35:10.991Z,967.00
2023-05-17T09:36:11.056Z,988.00
2023-05-17T09:37:11.151Z,999.00
2023-05-17T09:38:11.190Z,1018.00
2023-05-17T09:39:11.253Z,1024.00
2023-05-17T09:40:11.305Z,1055.00
2023-05-17T09:41:11.357Z,1045.00
2023-05-17T09:42:11.442Z,1049.00
2023-05-17T09:43:11.505Z,1035.00
2023-05-17T09:44:11.625Z,1039.00
2023-05-17T09:45:11.595Z,974.00
2023-05-17T09:46:11.679Z,921.00
2023-05-17T09:47:11.790Z,951.00
2023-05-17T09:48:11.829Z,904.00
2023-05-17T09:49:11.854Z,798.00
2023-05-17T09:50:11.879Z,689.00
2023-05-17T09:51:11.856Z,647.00
2023-05-17T09:52:11.864Z,615.00
2023-05-17T09:53:11.895Z,600.00
2023-05-17T09:54:11.940Z,600.00
2023-05-17T09:55:11.876Z,600.00
2023-05-17T09:56:11.934Z,600.00
2023-05-17T09:57:11.947Z,600.00
2023-05-17T09:58:12.008Z,599.00
2023-05-17T09:59:11.965Z,602.00
2023-05-17T10:00:12.113Z,600.00
2023-05-17T10:01:12.105Z,602.00
2023-05-17T10:02:12.053Z,599.00
2023-05-17T10:03:12.137Z,600.00
2023-05-17T10:04:12.321Z,595.00
2023-05-17T10:05:12.258Z,600.00
2023-05-17T10:06:16.578Z,600.00
2023-05-17T10:07:13.208Z,597.00
2023-05-17T10:08:12.251Z,580.00
2023-05-17T10:09:12.213Z,562.00
2023-05-17T10:10:12.192Z,560.00
2023-05-17T10:11:12.186Z,553.00
2023-05-17T10:12:12.257Z,564.00
2023-05-17T10:13:12.171Z,590.00
2023-05-17T10:14:12.235Z,603.00
2023-05-17T10:15:12.170Z,600.00
2023-05-17T10:16:12.145Z,600.00
2023-05-17T10:17:12.135Z,603.00
2023-05-17T10:18:12.302Z,600.00
2023-05-17T10:19:12.308Z,602.00
2023-05-17T10:20:12.370Z,601.00
2023-05-17T10:21:12.371Z,607.00
2023-05-17T10:23:13.392Z,601.00
2023-05-17T10:24:12.411Z,602.00
2023-05-17T10:25:12.397Z,601.00
2023-05-17T10:26:12.374Z,604.00
2023-05-17T10:27:12.365Z,608.00
2023-05-17T10:28:12.385Z,607.00
2023-05-17T10:29:12.396Z,620.00
2023-05-17T10:30:12.362Z,639.00
2023-05-17T10:31:12.326Z,642.00
2023-05-17T10:32:12.365Z,662.00
2023-05-17T10:33:20.624Z,658.00
2023-05-17T10:34:12.486Z,659.00
2023-05-17T10:35:12.468Z,661.00
2023-05-17T10:36:12.412Z,676.00
2023-05-17T10:37:12.388Z,712.00
2023-05-17T10:38:12.406Z,820.00
2023-05-17T10:39:12.419Z,845.00
2023-05-17T10:40:12.485Z,887.00
2023-05-17T10:41:12.541Z,915.00
2023-05-17T10:42:15.095Z,919.00
2023-05-17T10:43:12.584Z,935.00
2023-05-17T10:44:12.552Z,952.00
2023-05-17T10:45:12.560Z,975.00
2023-05-17T10:46:12.537Z,989.00
2023-05-17T10:47:12.519Z,995.00
2023-05-17T10:48:12.627Z,1007.00
2023-05-17T10:49:12.561Z,1022.00
2023-05-17T10:50:12.515Z,1034.00
2023-05-17T10:51:12.525Z,1032.00
2023-05-17T10:52:12.510Z,1042.00
2023-05-17T10:53:12.511Z,1039.00
2023-05-17T10:54:12.521Z,1053.00
2023-05-17T10:55:12.491Z,1048.00
2023-05-17T10:56:12.464Z,1046.00
2023-05-17T10:57:12.465Z,1054.00
2023-05-17T10:58:12.484Z,1045.00
2023-05-17T10:59:12.490Z,1070.00
2023-05-17T11:00:12.466Z,1048.00
2023-05-17T11:01:12.461Z,1056.00
2023-05-17T11:02:12.442Z,1050.00
2023-05-17T11:03:12.462Z,1059.00
2023-05-17T11:04:12.441Z,1064.00
2023-05-17T11:05:12.576Z,1058.00
2023-05-17T11:06:19.365Z,1061.00
2023-05-17T11:07:13.383Z,1062.00
2023-05-17T11:08:12.411Z,1064.00
2023-05-17T11:09:12.394Z,1064.00
2023-05-17T11:10:12.394Z,1064.00
2023-05-17T11:11:12.389Z,1076.00
2023-05-17T11:12:12.353Z,1063.00
2023-05-17T11:13:12.402Z,1067.00
2023-05-17T11:14:12.355Z,1069.00
2023-05-17T11:15:12.340Z,1059.00
2023-05-17T11:16:12.350Z,1061.00
2023-05-17T11:17:12.343Z,1065.00
2023-05-17T11:18:22.637Z,1070.00
2023-05-17T11:19:13.505Z,1070.00
2023-05-17T11:20:16.231Z,1071.00
2023-05-17T11:21:12.428Z,1071.00
2023-05-17T11:22:12.404Z,1071.00
2023-05-17T11:23:12.356Z,1070.00
2023-05-17T11:24:12.370Z,1065.00
2023-05-17T11:25:12.346Z,1062.00
2023-05-17T11:26:16.234Z,1071.00
2023-05-17T11:27:12.355Z,1072.00
2023-05-17T11:28:12.348Z,1072.00
2023-05-17T11:29:12.359Z,1070.00
2023-05-17T11:30:12.323Z,1072.00
2023-05-17T11:31:12.347Z,1061.00
2023-05-17T11:32:12.345Z,1065.00
2023-05-17T11:33:24.907Z,1071.00
2023-05-17T11:34:13.453Z,1072.00
2023-05-17T11:35:12.339Z,1071.00
2023-05-17T11:36:12.283Z,1074.00
2023-05-17T11:37:12.284Z,1072.00
2023-05-17T11:38:12.279Z,1068.00
2023-05-17T11:39:12.294Z,1069.00
2023-05-17T11:40:12.331Z,1070.00
2023-05-17T11:41:19.580Z,1065.00
2023-05-17T11:42:13.277Z,1066.00
2023-05-17T11:43:12.230Z,1066.00
2023-05-17T11:44:12.265Z,1067.00
2023-05-17T11:45:12.233Z,1064.00
2023-05-17T11:46:12.231Z,1061.00
2023-05-17T11:47:12.261Z,1049.00
2023-05-17T11:48:12.278Z,1061.00
2023-05-17T11:49:20.225Z,1049.00
2023-05-17T11:50:13.236Z,1050.00
2023-05-17T11:51:12.225Z,1050.00
2023-05-17T11:52:12.165Z,1054.00
2023-05-17T11:53:12.173Z,1052.00
2023-05-17T11:54:12.177Z,1059.00
2023-05-17T11:55:12.191Z,1045.00
2023-05-17T11:56:12.146Z,1046.00
2023-05-17T11:57:12.151Z,1053.00
2023-05-17T11:58:12.206Z,1050.00
2023-05-17T11:59:12.309Z,1057.00
2023-05-17T12:00:12.337Z,1053.00
2023-05-17T12:01:12.392Z,1051.00
2023-05-17T12:02:12.448Z,1059.00
2023-05-17T12:03:12.567Z,1049.00
2023-05-17T12:04:13.091Z,1048.00
2023-05-17T12:05:12.660Z,1056.00
2023-05-17T12:06:12.915Z,1049.00
2023-05-17T12:07:12.743Z,1056.00
2023-05-17T12:08:12.813Z,1053.00
2023-05-17T12:09:12.987Z,1049.00
2023-05-17T12:10:12.959Z,1048.00
2023-05-17T12:11:12.993Z,1054.00
2023-05-17T12:12:13.079Z,1053.00
2023-05-17T12:13:13.137Z,1054.00
2023-05-17T12:14:13.210Z,1082.00
2023-05-17T12:15:13.250Z,1124.00
2023-05-17T12:16:14.601Z,1142.00
2023-05-17T12:17:13.312Z,1196.00
2023-05-17T12:18:13.375Z,1911.00
2023-05-17T12:19:13.363Z,1773.00
2023-05-17T12:20:13.399Z,1563.00
2023-05-17T12:21:13.284Z,1357.00
2023-05-17T12:22:13.362Z,1265.00
2023-05-17T12:23:13.323Z,1225.00